createdAt,value
2018-02-02T00:02:22.718Z,2.50
2018-02-02T00:04:50.463Z,2.75
2018-02-02T00:07:18.896Z,2.47
2018-02-02T00:09:46.583Z,2.40
2018-02-02T00:12:14.261Z,2.50
2018-02-02T00:14:41.893Z,2.70
2018-02-02T00:17:09.500Z,2.58
2018-02-02T00:19:37.135Z,2.67
2018-02-02T00:22:04.895Z,2.70
2018-02-02T00:24:32.552Z,2.60
2018-02-02T00:27:00.278Z,2.70
2018-02-02T00:29:28.135Z,2.70
2018-02-02T00:31:55.730Z,2.50
2018-02-02T00:34:24.161Z,2.78
2018-02-02T00:36:52.838Z,2.50
2018-02-02T00:39:20.546Z,3.15
2018-02-02T00:41:48.199Z,2.85
2018-02-02T00:44:15.836Z,2.70
2018-02-02T00:46:43.452Z,2.83
2018-02-02T00:49:11.086Z,2.90
2018-02-02T00:51:44.410Z,3.20
2018-02-02T00:54:12.051Z,2.85
2018-02-02T00:56:40.412Z,3.10
2018-02-02T00:59:08.103Z,2.72
2018-02-02T01:01:36.537Z,2.62
2018-02-02T01:04:04.143Z,2.85
2018-02-02T01:06:32.424Z,2.70
2018-02-02T01:09:01.062Z,2.78
2018-02-02T01:11:29.484Z,2.80
2018-02-02T01:13:58.183Z,2.90
2018-02-02T01:16:25.840Z,2.62
2018-02-02T01:18:53.494Z,3.33
2018-02-02T01:21:21.163Z,3.22
2018-02-02T01:23:48.875Z,3.28
2018-02-02T01:26:16.561Z,3.10
2018-02-02T01:28:44.273Z,3.30
2018-02-02T01:31:11.885Z,3.00
2018-02-02T01:33:39.532Z,2.80
2018-02-02T01:36:07.138Z,3.00
2018-02-02T01:38:35.177Z,3.30
2018-02-02T01:41:03.799Z,3.50
2018-02-02T01:43:31.469Z,2.83
2018-02-02T01:45:59.909Z,2.90
2018-02-02T01:48:27.620Z,2.90
2018-02-02T01:50:56.087Z,2.80
2018-02-02T01:53:23.766Z,3.33
2018-02-02T01:55:51.416Z,3.25
2018-02-02T01:58:19.045Z,3.30
2018-02-02T02:00:46.709Z,3.03
2018-02-02T02:03:14.364Z,3.05
2018-02-02T02:05:42.867Z,2.97
2018-02-02T02:08:10.548Z,3.00
2018-02-02T02:10:38.152Z,2.67
2018-02-02T02:13:07.708Z,3.22
2018-02-02T02:15:35.403Z,2.90
2018-02-02T02:18:03.116Z,3.17
2018-02-02T02:20:31.577Z,2.85
2018-02-02T02:22:59.309Z,2.87
2018-02-02T02:25:26.974Z,3.20
2018-02-02T02:27:54.659Z,2.90
2018-02-02T02:30:22.332Z,3.33
2018-02-02T02:32:50.003Z,3.00
2018-02-02T02:35:17.740Z,3.10
2018-02-02T02:37:45.402Z,3.33
2018-02-02T02:40:13.075Z,3.33
2018-02-02T02:42:40.815Z,3.33
2018-02-02T02:45:09.217Z,3.20
2018-02-02T02:47:36.875Z,3.25
2018-02-02T02:50:04.487Z,3.37
2018-02-02T02:52:32.117Z,3.20
2018-02-02T02:54:59.740Z,3.00
2018-02-02T02:57:27.430Z,3.08
2018-02-02T02:59:55.823Z,2.85
2018-02-02T03:02:23.434Z,3.15
2018-02-02T03:04:51.080Z,3.40
2018-02-02T03:07:18.746Z,3.12
2018-02-02T03:09:46.418Z,3.20
2018-02-02T03:12:14.086Z,3.17
2018-02-02T03:14:41.695Z,3.47
2018-02-02T03:17:09.340Z,3.33
2018-02-02T03:19:36.957Z,3.22
2018-02-02T03:22:04.571Z,3.28
2018-02-02T03:24:32.185Z,3.45
2018-02-02T03:26:59.799Z,3.40
2018-02-02T03:29:27.513Z,3.30
2018-02-02T03:31:55.124Z,3.50
2018-02-02T03:34:22.752Z,3.22
2018-02-02T03:36:50.415Z,3.03
2018-02-02T03:39:18.930Z,3.17
2018-02-02T03:41:46.610Z,3.40
2018-02-02T03:44:14.225Z,3.05
2018-02-02T03:46:42.650Z,3.62
2018-02-02T03:49:10.254Z,3.28
2018-02-02T03:51:37.862Z,3.10
2018-02-02T03:54:05.559Z,3.37
2018-02-02T03:56:33.223Z,3.40
2018-02-02T03:59:00.870Z,3.47
2018-02-02T04:01:28.464Z,3.50
2018-02-02T04:03:56.287Z,3.42
2018-02-02T04:06:24.669Z,3.30
2018-02-02T04:08:53.087Z,3.40
2018-02-02T04:11:20.722Z,3.40
2018-02-02T04:13:48.339Z,3.12
2018-02-02T04:16:16.074Z,3.00
2018-02-02T04:18:43.726Z,3.10
2018-02-02T04:21:11.368Z,3.20
2018-02-02T04:23:39.859Z,3.30
2018-02-02T04:26:07.522Z,3.50
2018-02-02T04:28:35.139Z,3.45
2018-02-02T04:31:02.777Z,3.40
2018-02-02T04:33:31.197Z,3.10
2018-02-02T04:36:01.611Z,3.12
2018-02-02T04:38:29.232Z,3.70
2018-02-02T04:40:56.843Z,2.97
2018-02-02T04:43:24.493Z,3.40
2018-02-02T04:45:52.135Z,3.00
2018-02-02T04:48:20.551Z,3.45
2018-02-02T04:50:48.147Z,3.12
2018-02-02T04:53:15.889Z,3.10
2018-02-02T04:55:43.511Z,3.10
2018-02-02T04:58:11.899Z,3.25
2018-02-02T05:00:39.766Z,3.17
2018-02-02T05:03:07.427Z,3.20
2018-02-02T05:05:35.045Z,3.60
2018-02-02T05:08:02.675Z,3.25
2018-02-02T05:10:31.081Z,3.60
2018-02-02T05:12:58.780Z,3.70
2018-02-02T05:15:26.441Z,3.80
2018-02-02T05:17:54.838Z,3.83
2018-02-02T05:20:22.434Z,3.65
2018-02-02T05:22:50.081Z,3.30
2018-02-02T05:25:17.712Z,3.55
2018-02-02T05:27:45.333Z,3.90
2018-02-02T05:30:13.250Z,3.92
2018-02-02T05:32:40.894Z,3.93
2018-02-02T05:35:08.551Z,3.77
2018-02-02T05:37:36.950Z,3.33
2018-02-02T05:40:04.634Z,3.90
2018-02-02T05:42:32.254Z,3.55
2018-02-02T05:45:00.679Z,3.92
2018-02-02T05:47:28.335Z,3.70
2018-02-02T05:49:56.077Z,3.97
2018-02-02T05:52:24.465Z,4.12
2018-02-02T05:54:52.852Z,3.83
2018-02-02T05:57:21.413Z,3.70
2018-02-02T05:59:49.060Z,3.42
2018-02-02T06:02:16.694Z,3.80
2018-02-02T06:04:44.591Z,3.50
2018-02-02T06:07:12.209Z,4.10
2018-02-02T06:09:39.868Z,4.20
2018-02-02T06:12:07.497Z,4.37
2018-02-02T06:14:35.145Z,3.50
2018-02-02T06:17:02.971Z,4.00
2018-02-02T06:19:37.969Z,3.85
2018-02-02T06:22:05.670Z,3.70
2018-02-02T06:24:33.335Z,4.22
2018-02-02T06:27:00.943Z,3.97
2018-02-02T06:29:28.605Z,4.25
2018-02-02T06:31:56.286Z,4.07
2018-02-02T06:34:23.957Z,3.62
2018-02-02T06:36:51.874Z,4.28
2018-02-02T06:39:19.537Z,4.30
2018-02-02T06:41:47.616Z,4.30
2018-02-02T06:44:15.772Z,4.20
2018-02-02T06:46:43.409Z,3.97
2018-02-02T06:49:11.144Z,3.65
2018-02-02T06:51:38.758Z,4.30
2018-02-02T06:54:06.381Z,4.10
2018-02-02T06:56:34.811Z,4.12
2018-02-02T06:59:02.440Z,4.10
2018-02-02T07:01:30.826Z,4.10
2018-02-02T07:03:59.252Z,3.95
2018-02-02T07:06:26.892Z,3.87
2018-02-02T07:08:54.533Z,3.83
2018-02-02T07:11:22.914Z,4.37
2018-02-02T07:13:51.345Z,3.93
2018-02-02T07:16:19.419Z,3.65
2018-02-02T07:18:47.021Z,4.15
2018-02-02T07:21:16.291Z,4.00
2018-02-02T07:23:43.982Z,4.12
2018-02-02T07:26:12.239Z,3.87
2018-02-02T07:28:41.045Z,4.37
2018-02-02T07:31:08.784Z,4.20
2018-02-02T07:33:36.423Z,4.45
2018-02-02T07:36:04.839Z,4.75
2018-02-02T07:38:32.465Z,4.57
2018-02-02T07:41:00.981Z,4.30
2018-02-02T07:43:28.610Z,4.00
2018-02-02T07:45:57.047Z,4.28
2018-02-02T07:48:24.726Z,4.12
2018-02-02T07:50:52.403Z,4.50
2018-02-02T07:53:20.540Z,4.22
2018-02-02T07:55:49.371Z,3.92
2018-02-02T07:58:16.966Z,3.97
2018-02-02T08:00:50.454Z,3.80
2018-02-02T08:03:18.137Z,4.32
2018-02-02T08:05:46.515Z,4.18
2018-02-02T08:08:14.192Z,4.18
2018-02-02T08:10:41.795Z,4.12
2018-02-02T08:13:09.415Z,3.78
2018-02-02T08:15:37.201Z,4.37
2018-02-02T08:18:05.564Z,4.37
2018-02-02T08:20:33.223Z,4.03
2018-02-02T08:23:01.577Z,4.20
2018-02-02T08:25:30.176Z,4.20
2018-02-02T08:27:57.854Z,4.20
2018-02-02T08:30:25.625Z,4.07
2018-02-02T08:32:53.356Z,4.12
2018-02-02T08:35:21.002Z,3.70
2018-02-02T08:37:49.391Z,4.43
2018-02-02T08:40:17.059Z,3.95
2018-02-02T08:42:44.815Z,3.90
2018-02-02T08:45:13.236Z,3.80
2018-02-02T08:47:40.976Z,4.12
2018-02-02T08:50:09.377Z,3.65
2018-02-02T08:52:37.216Z,3.92
2018-02-02T08:55:05.395Z,4.05
2018-02-02T08:57:33.124Z,4.15
2018-02-02T09:00:00.753Z,3.80
2018-02-02T09:02:28.465Z,3.42
2018-02-02T09:04:56.139Z,3.87
2018-02-02T09:07:24.409Z,3.70
2018-02-02T09:09:52.059Z,4.10
2018-02-02T09:12:19.741Z,3.90
2018-02-02T09:14:47.365Z,3.40
2018-02-02T09:17:15.033Z,3.70
2018-02-02T09:19:43.468Z,3.28
2018-02-02T09:22:10.618Z,3.50
2018-02-02T09:24:39.045Z,3.60
2018-02-02T09:27:06.926Z,3.72
2018-02-02T09:29:34.613Z,3.10
2018-02-02T09:32:02.218Z,3.37
2018-02-02T09:34:29.917Z,3.42
2018-02-02T09:36:57.598Z,3.20
2018-02-02T09:39:25.397Z,3.33
2018-02-02T09:41:53.039Z,3.63
2018-02-02T09:44:20.638Z,3.22
2018-02-02T09:46:48.433Z,3.80
2018-02-02T09:49:16.798Z,3.62
2018-02-02T09:51:44.434Z,3.55
2018-02-02T09:54:12.327Z,3.60
2018-02-02T09:56:40.022Z,3.45
2018-02-02T09:59:08.443Z,3.33
2018-02-02T10:01:36.169Z,2.95
2018-02-02T10:04:05.130Z,4.20
2018-02-02T10:06:32.790Z,3.53
2018-02-02T10:09:00.990Z,3.53
2018-02-02T10:11:28.695Z,3.60
2018-02-02T10:13:56.317Z,3.70
2018-02-02T10:16:24.011Z,3.50
2018-02-02T10:18:51.633Z,3.55
2018-02-02T10:21:19.432Z,3.20
2018-02-02T10:23:47.633Z,3.70
2018-02-02T10:26:15.310Z,3.40
2018-02-02T10:28:43.957Z,3.30
2018-02-02T10:31:12.455Z,2.92
2018-02-02T10:33:40.512Z,3.12
2018-02-02T10:36:08.203Z,3.05
2018-02-02T10:38:35.855Z,3.60
2018-02-02T10:41:03.520Z,2.85
2018-02-02T10:43:31.221Z,3.00
2018-02-02T10:45:58.881Z,2.80
2018-02-02T10:48:26.590Z,3.25
2018-02-02T10:50:54.999Z,3.22
2018-02-02T10:53:22.701Z,2.92
2018-02-02T10:55:50.394Z,2.80
2018-02-02T10:58:18.087Z,2.80
2018-02-02T11:00:51.510Z,2.90
2018-02-02T11:06:19.311Z,2.50
2018-02-02T11:08:46.961Z,2.90
2018-02-02T11:11:15.005Z,2.50
2018-02-02T11:13:42.683Z,2.50
2018-02-02T11:16:10.897Z,2.40
2018-02-02T11:18:38.567Z,2.62
2018-02-02T11:21:06.233Z,2.67
2018-02-02T11:23:33.903Z,2.72
2018-02-02T11:26:01.547Z,2.35
2018-02-02T11:28:29.168Z,2.80
2018-02-02T11:30:57.587Z,2.93
2018-02-02T11:33:25.260Z,2.60
2018-02-02T11:35:52.914Z,2.50
2018-02-02T11:38:20.561Z,2.55
2018-02-02T11:40:48.233Z,2.25
2018-02-02T11:43:17.420Z,2.62
2018-02-02T11:45:46.260Z,2.50
2018-02-02T11:48:13.935Z,2.62
2018-02-02T11:50:41.616Z,2.70
2018-02-02T11:53:09.245Z,2.60
2018-02-02T11:55:36.981Z,2.60
2018-02-02T11:58:05.327Z,2.50
2018-02-02T12:00:33.101Z,2.50
2018-02-02T12:03:01.101Z,2.80
2018-02-02T12:05:28.736Z,3.08
2018-02-02T12:07:56.506Z,2.53
2018-02-02T12:10:24.128Z,3.00
2018-02-02T12:12:51.797Z,2.50
2018-02-02T12:15:19.438Z,2.70
2018-02-02T12:17:47.894Z,2.47
2018-02-02T12:20:15.527Z,2.65
2018-02-02T12:22:45.991Z,2.80
2018-02-02T12:25:16.789Z,2.70
2018-02-02T12:27:50.102Z,2.50
2018-02-02T12:30:23.579Z,2.80
2018-02-02T12:32:56.845Z,2.53
2018-02-02T12:35:28.796Z,2.45
2018-02-02T12:37:56.484Z,2.85
2018-02-02T12:40:25.168Z,2.95
2018-02-02T12:42:52.824Z,2.35
2018-02-02T12:45:21.223Z,2.63
2018-02-02T12:48:01.865Z,2.53
2018-02-02T12:50:35.569Z,3.22
2018-02-02T12:53:03.277Z,2.70
2018-02-02T12:55:30.982Z,2.37
2018-02-02T12:57:58.634Z,2.95
2018-02-02T13:00:26.284Z,3.17
2018-02-02T13:02:53.941Z,2.65
2018-02-02T13:05:21.696Z,3.07
2018-02-02T13:07:49.373Z,2.95
2018-02-02T13:10:17.019Z,2.70
2018-02-02T13:12:45.520Z,2.62
2018-02-02T13:15:14.130Z,3.07
2018-02-02T13:17:41.813Z,2.67
2018-02-02T13:20:09.480Z,2.83
2018-02-02T13:22:37.141Z,2.55
2018-02-02T13:25:04.845Z,2.30
2018-02-02T13:27:32.572Z,2.60
2018-02-02T13:30:00.333Z,2.90
2018-02-02T13:32:27.992Z,3.40
2018-02-02T13:34:56.685Z,2.97
2018-02-02T13:37:25.223Z,2.80
2018-02-02T13:39:53.156Z,2.50
2018-02-02T13:42:20.861Z,2.57
2018-02-02T13:44:49.030Z,2.65
2018-02-02T13:47:16.792Z,2.60
2018-02-02T13:49:44.417Z,2.80
2018-02-02T13:52:12.123Z,2.80
2018-02-02T13:54:39.797Z,2.97
2018-02-02T13:57:07.414Z,2.60
2018-02-02T13:59:35.063Z,2.40
2018-02-02T14:02:02.802Z,2.50
2018-02-02T14:04:30.409Z,2.65
2018-02-02T14:06:58.027Z,2.78
2018-02-02T14:09:26.036Z,2.85
2018-02-02T14:11:53.953Z,2.40
2018-02-02T14:14:21.615Z,2.92
2018-02-02T14:16:50.012Z,2.67
2018-02-02T14:19:17.769Z,2.45
2018-02-02T14:21:45.459Z,2.75
2018-02-02T14:24:13.111Z,2.53
2018-02-02T14:26:40.755Z,2.95
2018-02-02T14:29:09.235Z,2.70
2018-02-02T14:31:37.656Z,3.20
2018-02-02T14:34:05.329Z,2.80
2018-02-02T14:36:33.013Z,2.53
2018-02-02T14:39:00.700Z,2.47
2018-02-02T14:41:28.929Z,2.85
2018-02-02T14:43:56.957Z,2.60
2018-02-02T14:46:24.731Z,2.90
2018-02-02T14:48:52.483Z,2.20
2018-02-02T14:51:20.197Z,3.05
2018-02-02T14:53:47.929Z,2.55
2018-02-02T14:56:16.333Z,2.78
2018-02-02T14:58:43.966Z,2.50
2018-02-02T15:01:11.934Z,3.50
2018-02-02T15:03:39.593Z,2.80
2018-02-02T15:06:07.270Z,2.67
2018-02-02T15:08:35.666Z,2.60
2018-02-02T15:11:03.290Z,2.80
2018-02-02T15:13:30.969Z,2.60
2018-02-02T15:15:58.628Z,3.00
2018-02-02T15:18:26.313Z,2.80
2018-02-02T15:20:53.973Z,2.30
2018-02-02T15:26:14.955Z,2.72
2018-02-02T15:28:42.623Z,2.80
2018-02-02T15:31:10.271Z,3.35
2018-02-02T15:33:38.511Z,3.00
2018-02-02T15:36:06.172Z,2.40
2018-02-02T15:38:33.842Z,2.67
2018-02-02T15:41:01.456Z,2.90
2018-02-02T15:43:29.158Z,2.50
2018-02-02T15:45:57.725Z,2.50
2018-02-02T15:48:25.398Z,2.55
2018-02-02T15:50:53.090Z,2.65
2018-02-02T15:53:20.757Z,2.60
2018-02-02T15:55:48.540Z,3.55
2018-02-02T15:58:17.101Z,2.93
2018-02-02T16:00:44.776Z,2.85
2018-02-02T16:03:13.396Z,2.53
2018-02-02T16:05:41.870Z,2.95
2018-02-02T16:08:09.476Z,2.83
2018-02-02T16:10:37.281Z,3.15
2018-02-02T16:13:05.890Z,3.37
2018-02-02T16:15:33.678Z,3.12
2018-02-02T16:18:01.341Z,2.92
2018-02-02T16:20:29.760Z,3.12
2018-02-02T16:22:57.421Z,3.08
2018-02-02T16:25:25.820Z,2.87
2018-02-02T16:27:53.525Z,3.03
2018-02-02T16:30:21.297Z,3.33
2018-02-02T16:32:48.955Z,3.03
2018-02-02T16:35:16.608Z,2.92
2018-02-02T16:37:44.281Z,3.17
2018-02-02T16:40:11.995Z,2.90
2018-02-02T16:42:40.457Z,3.53
2018-02-02T16:45:08.100Z,3.37
2018-02-02T16:47:35.796Z,3.25
2018-02-02T16:50:03.735Z,3.10
2018-02-02T16:52:31.387Z,3.42
2018-02-02T16:54:59.007Z,2.80
2018-02-02T16:57:27.474Z,3.40
2018-02-02T16:59:55.152Z,3.17
2018-02-02T17:02:22.795Z,3.00
2018-02-02T17:04:50.416Z,3.35
2018-02-02T17:07:18.819Z,3.22
2018-02-02T17:09:46.530Z,3.20
2018-02-02T17:12:14.557Z,3.37
2018-02-02T17:14:43.698Z,3.30
2018-02-02T17:17:11.455Z,3.60
2018-02-02T17:19:39.058Z,3.73
2018-02-02T17:22:07.014Z,3.22
2018-02-02T17:24:35.420Z,3.30
2018-02-02T17:27:03.167Z,3.47
2018-02-02T17:29:30.833Z,3.55
2018-02-02T17:31:58.458Z,3.70
2018-02-02T17:34:26.431Z,3.13
2018-02-02T17:36:54.423Z,3.30
2018-02-02T17:39:22.115Z,4.00
2018-02-02T17:41:50.574Z,3.55
2018-02-02T17:44:18.244Z,3.50
2018-02-02T17:46:45.870Z,3.55
2018-02-02T17:49:14.276Z,3.90
2018-02-02T17:51:41.903Z,3.90
2018-02-02T17:54:09.504Z,4.18
2018-02-02T17:56:37.472Z,3.60
2018-02-02T17:59:05.882Z,4.00
2018-02-02T18:01:38.239Z,3.62
2018-02-02T18:04:05.976Z,3.70
2018-02-02T18:06:34.497Z,3.87
2018-02-02T18:09:02.156Z,3.75
2018-02-02T18:11:29.755Z,3.70
2018-02-02T18:13:57.437Z,3.85
2018-02-02T18:16:25.077Z,3.83
2018-02-02T18:18:52.745Z,3.58
2018-02-02T18:21:20.534Z,3.20
2018-02-02T18:23:48.198Z,3.30
2018-02-02T18:26:15.884Z,3.72
2018-02-02T18:28:44.287Z,3.70
2018-02-02T18:31:12.715Z,3.70
2018-02-02T18:33:40.385Z,3.47
2018-02-02T18:36:10.466Z,3.33
2018-02-02T18:38:39.563Z,4.05
2018-02-02T18:41:07.335Z,3.67
2018-02-02T18:43:35.788Z,3.55
2018-02-02T18:46:03.541Z,3.93
2018-02-02T18:48:31.280Z,3.75
2018-02-02T18:50:58.960Z,3.65
2018-02-02T18:53:26.937Z,3.70
2018-02-02T18:55:54.603Z,3.35
2018-02-02T18:58:22.440Z,3.85
2018-02-02T19:00:50.874Z,4.00
2018-02-02T19:03:19.114Z,4.10
2018-02-02T19:05:46.739Z,3.80
2018-02-02T19:08:14.438Z,3.53
2018-02-02T19:10:42.815Z,3.50
2018-02-02T19:13:10.506Z,3.90
2018-02-02T19:15:38.559Z,3.87
2018-02-02T19:18:06.929Z,3.43
2018-02-02T19:20:35.461Z,3.87
2018-02-02T19:23:03.150Z,3.85
2018-02-02T19:25:31.052Z,3.60
2018-02-02T19:27:58.818Z,3.72
2018-02-02T19:30:27.889Z,3.43
2018-02-02T19:32:55.590Z,3.72
2018-02-02T19:35:23.268Z,3.80
2018-02-02T19:37:51.774Z,4.27
2018-02-02T19:40:19.422Z,3.47
2018-02-02T19:42:47.882Z,3.95
2018-02-02T19:45:15.722Z,3.60
2018-02-02T19:47:43.402Z,3.95
2018-02-02T19:50:11.135Z,4.32
2018-02-02T19:52:38.806Z,3.80
2018-02-02T19:55:06.401Z,4.12
2018-02-02T19:57:34.318Z,4.25
2018-02-02T20:00:03.531Z,3.72
2018-02-02T20:02:32.173Z,3.78
2018-02-02T20:04:59.847Z,3.92
2018-02-02T20:07:27.736Z,4.12
2018-02-02T20:09:55.390Z,4.00
2018-02-02T20:12:23.354Z,4.28
2018-02-02T20:14:51.029Z,3.62
2018-02-02T20:17:18.740Z,3.85
2018-02-02T20:19:47.188Z,4.40
2018-02-02T20:22:14.916Z,3.83
2018-02-02T20:24:42.605Z,4.12
2018-02-02T20:27:10.281Z,4.12
2018-02-02T20:29:37.922Z,4.35
2018-02-02T20:32:05.726Z,4.10
2018-02-02T20:34:33.532Z,3.70
2018-02-02T20:37:01.843Z,4.70
2018-02-02T20:39:29.493Z,4.43
2018-02-02T20:41:57.966Z,4.40
2018-02-02T20:44:25.762Z,3.97
2018-02-02T20:46:53.415Z,3.72
2018-02-02T20:49:21.147Z,3.75
2018-02-02T20:51:48.868Z,4.00
2018-02-02T20:54:16.493Z,4.32
2018-02-02T20:56:44.195Z,4.20
2018-02-02T20:59:12.650Z,3.60
2018-02-02T21:01:40.265Z,4.05
2018-02-02T21:04:09.046Z,4.73
2018-02-02T21:06:37.471Z,4.40
2018-02-02T21:09:05.151Z,4.40
2018-02-02T21:11:32.836Z,4.18
2018-02-02T21:14:00.517Z,4.25
2018-02-02T21:16:28.165Z,4.15
2018-02-02T21:18:55.822Z,4.40
2018-02-02T21:21:23.449Z,4.40
2018-02-02T21:23:51.129Z,4.35
2018-02-02T21:26:18.752Z,4.30
2018-02-02T21:28:46.458Z,3.97
2018-02-02T21:31:14.221Z,4.30
2018-02-02T21:33:41.823Z,5.07
2018-02-02T21:36:09.454Z,4.95
2018-02-02T21:38:37.125Z,4.37
2018-02-02T21:41:04.811Z,4.25
2018-02-02T21:43:32.450Z,5.10
2018-02-02T21:46:00.578Z,4.60
2018-02-02T21:48:28.221Z,4.85
2018-02-02T21:50:55.891Z,4.22
2018-02-02T21:53:23.613Z,4.85
2018-02-02T21:55:52.030Z,4.35
2018-02-02T21:58:20.455Z,4.57
2018-02-02T22:00:48.079Z,5.12
2018-02-02T22:03:15.765Z,4.70
2018-02-02T22:05:43.531Z,4.50
2018-02-02T22:08:11.226Z,4.68
2018-02-02T22:10:38.886Z,4.95
2018-02-02T22:13:06.485Z,4.82
2018-02-02T22:15:34.196Z,5.07
2018-02-02T22:18:01.834Z,4.90
2018-02-02T22:20:29.489Z,5.07
2018-02-02T22:22:57.107Z,4.93
2018-02-02T22:25:24.808Z,4.68
2018-02-02T22:27:53.625Z,4.57
2018-02-02T22:30:21.366Z,4.43
2018-02-02T22:32:49.265Z,5.10
2018-02-02T22:35:17.640Z,4.93
2018-02-02T22:37:45.302Z,4.72
2018-02-02T22:40:13.724Z,4.90
2018-02-02T22:42:41.426Z,4.60
2018-02-02T22:45:09.054Z,5.07
2018-02-02T22:47:36.671Z,4.68
2018-02-02T22:50:05.064Z,4.82
2018-02-02T22:52:33.534Z,4.95
2018-02-02T22:55:01.181Z,4.53
2018-02-02T22:57:28.861Z,4.78
2018-02-02T22:59:56.542Z,5.43
2018-02-02T23:02:24.961Z,5.45
2018-02-02T23:04:52.648Z,5.22
2018-02-02T23:07:20.241Z,4.80
2018-02-02T23:09:47.882Z,5.22
2018-02-02T23:12:15.581Z,4.47
2018-02-02T23:14:43.265Z,5.00
2018-02-02T23:17:10.946Z,5.25
2018-02-02T23:19:39.340Z,4.95
2018-02-02T23:22:07.009Z,5.87
2018-02-02T23:24:34.633Z,5.10
2018-02-02T23:27:02.245Z,4.68
2018-02-02T23:29:30.652Z,5.57
2018-02-02T23:31:59.246Z,5.20
2018-02-02T23:34:26.968Z,4.97
2018-02-02T23:36:56.176Z,5.35
2018-02-02T23:39:24.563Z,5.22
2018-02-02T23:41:52.220Z,5.97
2018-02-02T23:44:20.660Z,4.97
2018-02-02T23:46:48.471Z,5.18
2018-02-02T23:49:16.880Z,5.12
2018-02-02T23:51:44.490Z,5.57
2018-02-02T23:54:12.169Z,5.68
2018-02-02T23:56:39.812Z,5.65
2018-02-02T23:59:07.474Z,5.62
